sensor_id;sensor_type;location;lat;lon;timestamp;temperature;humidity
18126;DHT22;53956;52.442;13.284;2022-12-07T00:00:35;6.20;99.90
18126;DHT22;53956;52.442;13.284;2022-12-07T00:03:01;6.40;99.90
18126;DHT22;53956;52.442;13.284;2022-12-07T00:05:29;6.40;99.90
18126;DHT22;53956;52.442;13.284;2022-12-07T00:07:56;6.50;99.90
18126;DHT22;53956;52.442;13.284;2022-12-07T00:10:22;6.30;99.90
18126;DHT22;53956;52.442;13.284;2022-12-07T00:12:49;6.20;99.90
18126;DHT22;53956;52.442;13.284;2022-12-07T00:15:17;6.30;99.90
18126;DHT22;53956;52.442;13.284;2022-12-07T00:17:44;6.40;99.90
18126;DHT22;53956;52.442;13.284;2022-12-07T00:20:11;6.40;99.90
18126;DHT22;53956;52.442;13.284;2022-12-07T00:22:37;6.40;99.90
18126;DHT22;53956;52.442;13.284;2022-12-07T00:25:04;6.40;99.90
18126;DHT22;53956;52.442;13.284;2022-12-07T00:27:31;6.40;99.90
18126;DHT22;53956;52.442;13.284;2022-12-07T00:29:58;6.40;99.90
18126;DHT22;53956;52.442;13.284;2022-12-07T00:32:26;6.20;99.90
18126;DHT22;53956;52.442;13.284;2022-12-07T00:34:53;6.30;99.90
18126;DHT22;53956;52.442;13.284;2022-12-07T00:37:19;6.20;99.90
18126;DHT22;53956;52.442;13.284;2022-12-07T00:39:46;6.30;99.90
18126;DHT22;53956;52.442;13.284;2022-12-07T00:42:12;6.10;99.90
18126;DHT22;53956;52.442;13.284;2022-12-07T00:44:39;6.20;99.90
18126;DHT22;53956;52.442;13.284;2022-12-07T00:47:06;6.10;99.90
18126;DHT22;53956;52.442;13.284;2022-12-07T00:49:34;6.30;99.90
18126;DHT22;53956;52.442;13.284;2022-12-07T00:52:00;6.30;99.90
18126;DHT22;53956;52.442;13.284;2022-12-07T00:54:27;6.10;99.90
18126;DHT22;53956;52.442;13.284;2022-12-07T00:56:54;6.20;99.90
18126;DHT22;53956;52.442;13.284;2022-12-07T00:59:20;6.10;99.90
18126;DHT22;53956;52.442;13.284;2022-12-07T01:01:47;6.10;99.90
18126;DHT22;53956;52.442;13.284;2022-12-07T01:04:14;6.20;99.90
18126;DHT22;53956;52.442;13.284;2022-12-07T01:06:42;6.30;99.90
18126;DHT22;53956;52.442;13.284;2022-12-07T01:09:08;6.10;99.90
18126;DHT22;53956;52.442;13.284;2022-12-07T01:11:35;6.30;99.90
18126;DHT22;53956;52.442;13.284;2022-12-07T01:14:01;6.20;99.90
18126;DHT22;53956;52.442;13.284;2022-12-07T01:16:30;6.30;99.90
18126;DHT22;53956;52.442;13.284;2022-12-07T01:18:58;6.40;99.90
18126;DHT22;53956;52.442;13.284;2022-12-07T01:21:26;6.40;99.90
18126;DHT22;53956;52.442;13.284;2022-12-07T01:23:57;6.20;99.90
18126;DHT22;53956;52.442;13.284;2022-12-07T01:26:25;6.30;99.90
18126;DHT22;53956;52.442;13.284;2022-12-07T01:28:52;6.10;99.90
18126;DHT22;53956;52.442;13.284;2022-12-07T01:31:21;6.10;99.90
18126;DHT22;53956;52.442;13.284;2022-12-07T01:33:51;6.20;99.90
18126;DHT22;53956;52.442;13.284;2022-12-07T01:36:20;6.20;99.90
18126;DHT22;53956;52.442;13.284;2022-12-07T01:38:48;6.20;99.90
18126;DHT22;53956;52.442;13.284;2022-12-07T01:41:19;6.00;99.90
18126;DHT22;53956;52.442;13.284;2022-12-07T01:46:50;6.10;99.90
18126;DHT22;53956;52.442;13.284;2022-12-07T01:49:23;6.20;99.90
18126;DHT22;53956;52.442;13.284;2022-12-07T01:51:52;6.10;99.90
18126;DHT22;53956;52.442;13.284;2022-12-07T01:54:22;5.90;99.90
18126;DHT22;53956;52.442;13.284;2022-12-07T01:56:53;5.90;99.90
18126;DHT22;53956;52.442;13.284;2022-12-07T01:59:22;6.20;99.90
18126;DHT22;53956;52.442;13.284;2022-12-07T02:01:51;6.10;99.90
18126;DHT22;53956;52.442;13.284;2022-12-07T02:04:18;6.00;99.90
18126;DHT22;53956;52.442;13.284;2022-12-07T02:06:45;6.20;99.90
18126;DHT22;53956;52.442;13.284;2022-12-07T02:09:13;6.20;99.90
18126;DHT22;53956;52.442;13.284;2022-12-07T02:11:40;6.10;99.90
18126;DHT22;53956;52.442;13.284;2022-12-07T02:14:08;6.20;99.90
18126;DHT22;53956;52.442;13.284;2022-12-07T02:16:42;6.00;99.90
18126;DHT22;53956;52.442;13.284;2022-12-07T02:19:32;6.10;99.90
18126;DHT22;53956;52.442;13.284;2022-12-07T02:22:18;6.00;99.90
18126;DHT22;53956;52.442;13.284;2022-12-07T02:24:54;6.10;99.90
18126;DHT22;53956;52.442;13.284;2022-12-07T02:27:43;6.10;99.90
18126;DHT22;53956;52.442;13.284;2022-12-07T02:30:14;6.10;99.90
18126;DHT22;53956;52.442;13.284;2022-12-07T02:32:46;6.10;99.90
18126;DHT22;53956;52.442;13.284;2022-12-07T02:35:18;6.10;99.90
18126;DHT22;53956;52.442;13.284;2022-12-07T02:37:53;6.00;99.90
18126;DHT22;53956;52.442;13.284;2022-12-07T02:40:25;6.10;99.90
18126;DHT22;53956;52.442;13.284;2022-12-07T02:42:58;6.00;99.90
18126;DHT22;53956;52.442;13.284;2022-12-07T02:45:31;5.80;99.90
18126;DHT22;53956;52.442;13.284;2022-12-07T02:47:59;6.00;99.90
18126;DHT22;53956;52.442;13.284;2022-12-07T02:50:27;6.00;99.90
18126;DHT22;53956;52.442;13.284;2022-12-07T02:52:54;5.80;99.90
18126;DHT22;53956;52.442;13.284;2022-12-07T02:55:26;5.80;99.90
18126;DHT22;53956;52.442;13.284;2022-12-07T02:58:06;6.00;99.90
18126;DHT22;53956;52.442;13.284;2022-12-07T03:00:45;6.10;99.90
18126;DHT22;53956;52.442;13.284;2022-12-07T03:03:14;6.20;99.90
18126;DHT22;53956;52.442;13.284;2022-12-07T03:05:53;6.20;99.90
18126;DHT22;53956;52.442;13.284;2022-12-07T03:08:29;5.80;99.90
18126;DHT22;53956;52.442;13.284;2022-12-07T03:10:59;6.00;99.90
18126;DHT22;53956;52.442;13.284;2022-12-07T03:13:30;6.00;99.90
18126;DHT22;53956;52.442;13.284;2022-12-07T03:16:07;5.90;99.90
18126;DHT22;53956;52.442;13.284;2022-12-07T03:18:39;6.10;99.90
18126;DHT22;53956;52.442;13.284;2022-12-07T03:21:16;6.10;99.90
18126;DHT22;53956;52.442;13.284;2022-12-07T03:23:45;6.00;99.90
18126;DHT22;53956;52.442;13.284;2022-12-07T03:26:15;6.00;99.90
18126;DHT22;53956;52.442;13.284;2022-12-07T03:28:46;5.90;99.90
18126;DHT22;53956;52.442;13.284;2022-12-07T03:31:18;6.20;99.90
18126;DHT22;53956;52.442;13.284;2022-12-07T03:33:49;5.80;99.90
18126;DHT22;53956;52.442;13.284;2022-12-07T03:36:22;6.10;99.90
18126;DHT22;53956;52.442;13.284;2022-12-07T03:38:53;5.90;99.90
18126;DHT22;53956;52.442;13.284;2022-12-07T03:41:23;5.60;99.90
18126;DHT22;53956;52.442;13.284;2022-12-07T03:43:51;5.90;99.90
18126;DHT22;53956;52.442;13.284;2022-12-07T03:46:25;6.00;99.90
18126;DHT22;53956;52.442;13.284;2022-12-07T03:48:58;5.90;99.90
18126;DHT22;53956;52.442;13.284;2022-12-07T03:51:30;5.90;99.90
18126;DHT22;53956;52.442;13.284;2022-12-07T03:54:05;6.00;99.90
18126;DHT22;53956;52.442;13.284;2022-12-07T03:56:34;5.90;99.90
18126;DHT22;53956;52.442;13.284;2022-12-07T03:59:01;5.90;99.90
18126;DHT22;53956;52.442;13.284;2022-12-07T04:01:29;5.90;99.90
18126;DHT22;53956;52.442;13.284;2022-12-07T04:03:56;6.00;99.90
18126;DHT22;53956;52.442;13.284;2022-12-07T04:06:22;6.10;99.90
18126;DHT22;53956;52.442;13.284;2022-12-07T04:08:49;6.10;99.90
18126;DHT22;53956;52.442;13.284;2022-12-07T04:11:15;6.10;99.90
18126;DHT22;53956;52.442;13.284;2022-12-07T04:13:42;5.90;99.90
18126;DHT22;53956;52.442;13.284;2022-12-07T04:16:26;6.00;99.90
18126;DHT22;53956;52.442;13.284;2022-12-07T04:18:54;5.90;99.90
18126;DHT22;53956;52.442;13.284;2022-12-07T04:21:21;5.80;99.90
18126;DHT22;53956;52.442;13.284;2022-12-07T04:23:48;6.00;99.90
18126;DHT22;53956;52.442;13.284;2022-12-07T04:26:14;5.80;99.90
18126;DHT22;53956;52.442;13.284;2022-12-07T04:28:41;6.00;99.90
18126;DHT22;53956;52.442;13.284;2022-12-07T04:31:08;6.20;99.90
18126;DHT22;53956;52.442;13.284;2022-12-07T04:33:35;6.00;99.90
18126;DHT22;53956;52.442;13.284;2022-12-07T04:36:04;6.10;99.90
18126;DHT22;53956;52.442;13.284;2022-12-07T04:38:30;5.90;99.90
18126;DHT22;53956;52.442;13.284;2022-12-07T04:40:57;6.10;99.90
18126;DHT22;53956;52.442;13.284;2022-12-07T04:43:24;6.00;99.90
18126;DHT22;53956;52.442;13.284;2022-12-07T04:45:50;6.00;99.90
18126;DHT22;53956;52.442;13.284;2022-12-07T04:48:17;5.90;99.90
18126;DHT22;53956;52.442;13.284;2022-12-07T04:50:43;5.90;99.90
18126;DHT22;53956;52.442;13.284;2022-12-07T04:53:11;6.00;99.90
18126;DHT22;53956;52.442;13.284;2022-12-07T04:55:38;5.90;99.90
18126;DHT22;53956;52.442;13.284;2022-12-07T04:58:05;5.90;99.90
18126;DHT22;53956;52.442;13.284;2022-12-07T05:00:31;5.80;99.90
18126;DHT22;53956;52.442;13.284;2022-12-07T05:02:58;5.90;99.90
18126;DHT22;53956;52.442;13.284;2022-12-07T05:05:25;6.00;99.90
18126;DHT22;53956;52.442;13.284;2022-12-07T05:07:51;5.70;99.90
18126;DHT22;53956;52.442;13.284;2022-12-07T05:10:19;5.90;99.90
18126;DHT22;53956;52.442;13.284;2022-12-07T05:12:46;5.60;99.90
18126;DHT22;53956;52.442;13.284;2022-12-07T05:15:13;6.10;99.90
18126;DHT22;53956;52.442;13.284;2022-12-07T05:17:40;6.10;99.90
18126;DHT22;53956;52.442;13.284;2022-12-07T05:20:08;5.90;99.90
18126;DHT22;53956;52.442;13.284;2022-12-07T05:22:35;5.90;99.90
18126;DHT22;53956;52.442;13.284;2022-12-07T05:25:02;5.80;99.90
18126;DHT22;53956;52.442;13.284;2022-12-07T05:27:30;6.00;99.90
18126;DHT22;53956;52.442;13.284;2022-12-07T05:29:57;5.90;99.90
18126;DHT22;53956;52.442;13.284;2022-12-07T05:32:23;6.10;99.90
18126;DHT22;53956;52.442;13.284;2022-12-07T05:34:50;6.00;99.90
18126;DHT22;53956;52.442;13.284;2022-12-07T05:37:16;6.00;99.90
18126;DHT22;53956;52.442;13.284;2022-12-07T05:39:43;6.20;99.90
18126;DHT22;53956;52.442;13.284;2022-12-07T05:42:10;6.20;99.90
18126;DHT22;53956;52.442;13.284;2022-12-07T05:44:43;5.80;99.90
18126;DHT22;53956;52.442;13.284;2022-12-07T05:47:10;6.10;99.90
18126;DHT22;53956;52.442;13.284;2022-12-07T05:49:37;6.10;99.90
18126;DHT22;53956;52.442;13.284;2022-12-07T05:52:04;6.10;99.90
18126;DHT22;53956;52.442;13.284;2022-12-07T05:54:30;6.00;99.90
18126;DHT22;53956;52.442;13.284;2022-12-07T05:56:57;6.10;99.90
18126;DHT22;53956;52.442;13.284;2022-12-07T05:59:24;6.20;99.90
18126;DHT22;53956;52.442;13.284;2022-12-07T06:01:52;6.20;99.90
18126;DHT22;53956;52.442;13.284;2022-12-07T06:04:20;6.30;99.90
18126;DHT22;53956;52.442;13.284;2022-12-07T06:06:47;6.30;99.90
18126;DHT22;53956;52.442;13.284;2022-12-07T06:09:14;6.40;99.90
18126;DHT22;53956;52.442;13.284;2022-12-07T06:11:40;6.40;99.90
18126;DHT22;53956;52.442;13.284;2022-12-07T06:14:25;6.40;99.90
18126;DHT22;53956;52.442;13.284;2022-12-07T06:16:53;6.30;99.90
18126;DHT22;53956;52.442;13.284;2022-12-07T06:19:19;6.30;99.90
18126;DHT22;53956;52.442;13.284;2022-12-07T06:21:46;6.40;99.90
18126;DHT22;53956;52.442;13.284;2022-12-07T06:24:14;6.40;99.90
18126;DHT22;53956;52.442;13.284;2022-12-07T06:26:41;6.30;99.90
18126;DHT22;53956;52.442;13.284;2022-12-07T06:29:08;6.10;99.90
18126;DHT22;53956;52.442;13.284;2022-12-07T06:31:35;6.30;99.90
18126;DHT22;53956;52.442;13.284;2022-12-07T06:34:05;6.30;99.90
18126;DHT22;53956;52.442;13.284;2022-12-07T06:36:33;6.30;99.90
18126;DHT22;53956;52.442;13.284;2022-12-07T06:38:59;6.30;99.90
18126;DHT22;53956;52.442;13.284;2022-12-07T06:41:26;6.30;99.90
18126;DHT22;53956;52.442;13.284;2022-12-07T06:43:53;6.50;99.90
18126;DHT22;53956;52.442;13.284;2022-12-07T06:46:20;6.10;99.90
18126;DHT22;53956;52.442;13.284;2022-12-07T06:48:47;6.40;99.90
18126;DHT22;53956;52.442;13.284;2022-12-07T06:51:15;6.50;99.90
18126;DHT22;53956;52.442;13.284;2022-12-07T06:53:42;6.50;99.90
18126;DHT22;53956;52.442;13.284;2022-12-07T06:56:08;6.30;99.90
18126;DHT22;53956;52.442;13.284;2022-12-07T06:58:35;6.40;99.90
18126;DHT22;53956;52.442;13.284;2022-12-07T07:01:02;6.40;99.90
18126;DHT22;53956;52.442;13.284;2022-12-07T07:03:29;6.40;99.90
18126;DHT22;53956;52.442;13.284;2022-12-07T07:05:55;6.40;99.90
18126;DHT22;53956;52.442;13.284;2022-12-07T07:08:23;6.40;99.90
18126;DHT22;53956;52.442;13.284;2022-12-07T07:10:50;6.50;99.90
18126;DHT22;53956;52.442;13.284;2022-12-07T07:13:17;6.60;99.90
18126;DHT22;53956;52.442;13.284;2022-12-07T07:15:43;6.50;99.90
18126;DHT22;53956;52.442;13.284;2022-12-07T07:18:10;6.60;99.90
18126;DHT22;53956;52.442;13.284;2022-12-07T07:20:37;6.60;99.90
18126;DHT22;53956;52.442;13.284;2022-12-07T07:23:04;6.60;99.90
18126;DHT22;53956;52.442;13.284;2022-12-07T07:25:33;6.70;99.90
18126;DHT22;53956;52.442;13.284;2022-12-07T07:28:00;6.60;99.90
18126;DHT22;53956;52.442;13.284;2022-12-07T07:30:26;6.50;99.90
18126;DHT22;53956;52.442;13.284;2022-12-07T07:32:56;6.40;99.90
18126;DHT22;53956;52.442;13.284;2022-12-07T07:35:23;6.70;99.90
18126;DHT22;53956;52.442;13.284;2022-12-07T07:37:49;6.60;99.90
18126;DHT22;53956;52.442;13.284;2022-12-07T07:40:16;6.60;99.90
18126;DHT22;53956;52.442;13.284;2022-12-07T07:42:47;6.70;99.90
18126;DHT22;53956;52.442;13.284;2022-12-07T07:45:13;6.60;99.90
18126;DHT22;53956;52.442;13.284;2022-12-07T07:47:40;6.60;99.90
18126;DHT22;53956;52.442;13.284;2022-12-07T07:50:07;6.60;99.90
18126;DHT22;53956;52.442;13.284;2022-12-07T07:52:34;6.60;99.90
18126;DHT22;53956;52.442;13.284;2022-12-07T07:55:01;6.50;99.90
18126;DHT22;53956;52.442;13.284;2022-12-07T07:57:28;6.60;99.90
18126;DHT22;53956;52.442;13.284;2022-12-07T07:59:56;6.40;99.90
18126;DHT22;53956;52.442;13.284;2022-12-07T08:02:22;6.70;99.90
18126;DHT22;53956;52.442;13.284;2022-12-07T08:04:49;6.60;99.90
18126;DHT22;53956;52.442;13.284;2022-12-07T08:07:16;6.70;99.90
18126;DHT22;53956;52.442;13.284;2022-12-07T08:09:43;6.70;99.90
18126;DHT22;53956;52.442;13.284;2022-12-07T08:12:09;6.50;99.90
18126;DHT22;53956;52.442;13.284;2022-12-07T08:14:36;6.50;99.90
18126;DHT22;53956;52.442;13.284;2022-12-07T08:17:04;6.70;99.90
18126;DHT22;53956;52.442;13.284;2022-12-07T08:19:31;6.60;99.90
18126;DHT22;53956;52.442;13.284;2022-12-07T08:21:57;6.50;99.90
18126;DHT22;53956;52.442;13.284;2022-12-07T08:24:24;6.50;99.90
18126;DHT22;53956;52.442;13.284;2022-12-07T08:26:51;6.60;99.90
18126;DHT22;53956;52.442;13.284;2022-12-07T08:29:18;6.70;99.90
18126;DHT22;53956;52.442;13.284;2022-12-07T08:31:44;6.60;99.90
18126;DHT22;53956;52.442;13.284;2022-12-07T08:34:13;6.60;99.90
18126;DHT22;53956;52.442;13.284;2022-12-07T08:36:40;6.60;99.90
18126;DHT22;53956;52.442;13.284;2022-12-07T08:39:06;6.60;99.90
18126;DHT22;53956;52.442;13.284;2022-12-07T08:41:33;6.50;99.90
18126;DHT22;53956;52.442;13.284;2022-12-07T08:44:00;6.80;99.90
18126;DHT22;53956;52.442;13.284;2022-12-07T08:46:31;6.70;99.90
18126;DHT22;53956;52.442;13.284;2022-12-07T08:49:04;6.60;99.90
18126;DHT22;53956;52.442;13.284;2022-12-07T08:51:33;6.50;99.90
18126;DHT22;53956;52.442;13.284;2022-12-07T08:54:01;6.60;99.90
18126;DHT22;53956;52.442;13.284;2022-12-07T08:56:29;6.50;99.90
18126;DHT22;53956;52.442;13.284;2022-12-07T08:58:57;6.60;99.90
18126;DHT22;53956;52.442;13.284;2022-12-07T09:01:24;6.50;99.90
18126;DHT22;53956;52.442;13.284;2022-12-07T09:03:50;6.40;99.90
18126;DHT22;53956;52.442;13.284;2022-12-07T09:06:17;6.50;99.90
18126;DHT22;53956;52.442;13.284;2022-12-07T09:08:47;6.70;99.90
18126;DHT22;53956;52.442;13.284;2022-12-07T09:11:16;6.60;99.90
18126;DHT22;53956;52.442;13.284;2022-12-07T09:13:42;6.40;99.90
18126;DHT22;53956;52.442;13.284;2022-12-07T09:16:09;6.40;99.90
18126;DHT22;53956;52.442;13.284;2022-12-07T09:18:36;6.50;99.90
18126;DHT22;53956;52.442;13.284;2022-12-07T09:21:03;6.30;99.90
18126;DHT22;53956;52.442;13.284;2022-12-07T09:23:30;6.50;99.90
18126;DHT22;53956;52.442;13.284;2022-12-07T09:26:00;6.40;99.90
18126;DHT22;53956;52.442;13.284;2022-12-07T09:28:27;6.50;99.90
18126;DHT22;53956;52.442;13.284;2022-12-07T09:30:54;6.50;99.90
18126;DHT22;53956;52.442;13.284;2022-12-07T09:33:20;6.70;99.90
18126;DHT22;53956;52.442;13.284;2022-12-07T09:35:48;6.60;99.90
18126;DHT22;53956;52.442;13.284;2022-12-07T09:38:15;6.70;99.90
18126;DHT22;53956;52.442;13.284;2022-12-07T09:40:43;6.70;99.90
18126;DHT22;53956;52.442;13.284;2022-12-07T09:43:14;6.60;99.90
18126;DHT22;53956;52.442;13.284;2022-12-07T09:45:42;6.50;99.90
18126;DHT22;53956;52.442;13.284;2022-12-07T09:48:16;6.50;99.90
18126;DHT22;53956;52.442;13.284;2022-12-07T09:50:43;6.70;99.90
18126;DHT22;53956;52.442;13.284;2022-12-07T09:53:15;6.70;99.90
18126;DHT22;53956;52.442;13.284;2022-12-07T09:55:43;6.80;99.90
18126;DHT22;53956;52.442;13.284;2022-12-07T09:58:19;6.70;99.90
18126;DHT22;53956;52.442;13.284;2022-12-07T10:00:46;6.30;99.90
18126;DHT22;53956;52.442;13.284;2022-12-07T10:03:13;6.30;99.90
18126;DHT22;53956;52.442;13.284;2022-12-07T10:05:42;6.50;99.90
18126;DHT22;53956;52.442;13.284;2022-12-07T10:08:11;6.50;99.90
18126;DHT22;53956;52.442;13.284;2022-12-07T10:10:38;6.40;99.90
18126;DHT22;53956;52.442;13.284;2022-12-07T10:13:07;6.40;99.90
18126;DHT22;53956;52.442;13.284;2022-12-07T10:15:47;6.40;99.90
18126;DHT22;53956;52.442;13.284;2022-12-07T10:18:26;6.50;99.90
18126;DHT22;53956;52.442;13.284;2022-12-07T10:21:11;6.70;99.90
18126;DHT22;53956;52.442;13.284;2022-12-07T10:23:39;6.60;99.90
18126;DHT22;53956;52.442;13.284;2022-12-07T10:26:29;6.50;99.90
18126;DHT22;53956;52.442;13.284;2022-12-07T10:28:59;6.50;99.90
18126;DHT22;53956;52.442;13.284;2022-12-07T10:31:27;6.50;99.90
18126;DHT22;53956;52.442;13.284;2022-12-07T10:33:56;6.50;99.90
18126;DHT22;53956;52.442;13.284;2022-12-07T10:36:25;6.50;99.90
18126;DHT22;53956;52.442;13.284;2022-12-07T10:38:58;6.70;99.90
18126;DHT22;53956;52.442;13.284;2022-12-07T10:41:25;6.70;99.90
18126;DHT22;53956;52.442;13.284;2022-12-07T10:43:53;6.80;99.90
18126;DHT22;53956;52.442;13.284;2022-12-07T10:46:49;6.50;99.90
18126;DHT22;53956;52.442;13.284;2022-12-07T10:49:37;6.60;99.90
18126;DHT22;53956;52.442;13.284;2022-12-07T10:52:14;6.70;99.90
18126;DHT22;53956;52.442;13.284;2022-12-07T10:54:48;6.70;99.90
18126;DHT22;53956;52.442;13.284;2022-12-07T10:57:31;6.70;99.90
18126;DHT22;53956;52.442;13.284;2022-12-07T11:00:06;6.90;99.90
18126;DHT22;53956;52.442;13.284;2022-12-07T11:02:51;6.80;99.90
18126;DHT22;53956;52.442;13.284;2022-12-07T11:05:26;6.80;99.90
18126;DHT22;53956;52.442;13.284;2022-12-07T11:08:02;6.80;99.90
18126;DHT22;53956;52.442;13.284;2022-12-07T11:10:40;6.90;99.90
18126;DHT22;53956;52.442;13.284;2022-12-07T11:13:27;6.90;99.90
18126;DHT22;53956;52.442;13.284;2022-12-07T11:16:05;6.80;99.90
18126;DHT22;53956;52.442;13.284;2022-12-07T11:18:39;6.80;99.90
18126;DHT22;53956;52.442;13.284;2022-12-07T11:21:13;6.80;99.90
18126;DHT22;53956;52.442;13.284;2022-12-07T11:23:48;6.80;99.90
18126;DHT22;53956;52.442;13.284;2022-12-07T11:26:25;6.90;99.90
18126;DHT22;53956;52.442;13.284;2022-12-07T11:29:09;6.70;99.90
18126;DHT22;53956;52.442;13.284;2022-12-07T11:31:49;6.80;99.90
18126;DHT22;53956;52.442;13.284;2022-12-07T11:34:24;6.80;99.90
18126;DHT22;53956;52.442;13.284;2022-12-07T11:36:54;6.80;99.90
18126;DHT22;53956;52.442;13.284;2022-12-07T11:39:26;6.90;99.90
18126;DHT22;53956;52.442;13.284;2022-12-07T11:42:05;6.90;99.90
18126;DHT22;53956;52.442;13.284;2022-12-07T11:44:39;7.00;99.90
18126;DHT22;53956;52.442;13.284;2022-12-07T11:47:16;6.80;99.90
18126;DHT22;53956;52.442;13.284;2022-12-07T11:49:51;6.90;99.90
18126;DHT22;53956;52.442;13.284;2022-12-07T11:52:24;7.10;99.90
18126;DHT22;53956;52.442;13.284;2022-12-07T11:54:53;6.90;99.90
18126;DHT22;53956;52.442;13.284;2022-12-07T11:57:25;6.90;99.90
18126;DHT22;53956;52.442;13.284;2022-12-07T11:59:58;6.80;99.90
18126;DHT22;53956;52.442;13.284;2022-12-07T12:02:34;6.90;99.90
18126;DHT22;53956;52.442;13.284;2022-12-07T12:05:12;6.80;99.90
18126;DHT22;53956;52.442;13.284;2022-12-07T12:07:41;7.00;99.90
18126;DHT22;53956;52.442;13.284;2022-12-07T12:10:17;7.00;99.90
18126;DHT22;53956;52.442;13.284;2022-12-07T12:13:02;6.80;99.90
18126;DHT22;53956;52.442;13.284;2022-12-07T12:15:44;7.10;99.90
18126;DHT22;53956;52.442;13.284;2022-12-07T12:18:27;7.20;99.90
18126;DHT22;53956;52.442;13.284;2022-12-07T12:21:02;7.10;99.90
18126;DHT22;53956;52.442;13.284;2022-12-07T12:23:37;7.00;99.90
18126;DHT22;53956;52.442;13.284;2022-12-07T12:26:07;7.10;99.90
18126;DHT22;53956;52.442;13.284;2022-12-07T12:28:39;7.20;99.90
18126;DHT22;53956;52.442;13.284;2022-12-07T12:31:11;7.20;99.90
18126;DHT22;53956;52.442;13.284;2022-12-07T12:33:43;7.10;99.90
18126;DHT22;53956;52.442;13.284;2022-12-07T12:36:20;7.20;99.90
18126;DHT22;53956;52.442;13.284;2022-12-07T12:38:49;7.10;99.90
18126;DHT22;53956;52.442;13.284;2022-12-07T12:45:17;7.10;99.90
18126;DHT22;53956;52.442;13.284;2022-12-07T12:47:56;7.10;99.90
18126;DHT22;53956;52.442;13.284;2022-12-07T12:50:25;7.30;99.90
18126;DHT22;53956;52.442;13.284;2022-12-07T12:53:00;7.30;99.90
18126;DHT22;53956;52.442;13.284;2022-12-07T12:58:43;7.30;99.90
18126;DHT22;53956;52.442;13.284;2022-12-07T13:01:44;7.20;99.90
18126;DHT22;53956;52.442;13.284;2022-12-07T13:10:30;7.30;99.90
18126;DHT22;53956;52.442;13.284;2022-12-07T13:13:01;7.20;99.90
18126;DHT22;53956;52.442;13.284;2022-12-07T13:15:34;7.30;99.90
18126;DHT22;53956;52.442;13.284;2022-12-07T13:18:04;7.30;99.90
18126;DHT22;53956;52.442;13.284;2022-12-07T13:20:51;7.30;99.90
18126;DHT22;53956;52.442;13.284;2022-12-07T13:23:21;7.20;99.90
18126;DHT22;53956;52.442;13.284;2022-12-07T13:25:55;7.40;99.90
18126;DHT22;53956;52.442;13.284;2022-12-07T13:28:26;7.30;99.90
18126;DHT22;53956;52.442;13.284;2022-12-07T13:31:11;7.30;99.90
18126;DHT22;53956;52.442;13.284;2022-12-07T13:33:39;7.30;99.90
18126;DHT22;53956;52.442;13.284;2022-12-07T13:36:16;7.30;99.90
18126;DHT22;53956;52.442;13.284;2022-12-07T13:38:50;7.40;99.90
18126;DHT22;53956;52.442;13.284;2022-12-07T13:41:20;7.30;99.90
18126;DHT22;53956;52.442;13.284;2022-12-07T13:43:51;7.40;99.90
18126;DHT22;53956;52.442;13.284;2022-12-07T13:46:24;7.40;99.90
18126;DHT22;53956;52.442;13.284;2022-12-07T13:48:52;7.40;99.90
18126;DHT22;53956;52.442;13.284;2022-12-07T13:51:23;7.30;99.90
18126;DHT22;53956;52.442;13.284;2022-12-07T13:53:52;7.30;99.90
18126;DHT22;53956;52.442;13.284;2022-12-07T13:56:26;7.20;99.90
18126;DHT22;53956;52.442;13.284;2022-12-07T13:58:55;7.20;99.90
18126;DHT22;53956;52.442;13.284;2022-12-07T14:01:21;7.20;99.90
18126;DHT22;53956;52.442;13.284;2022-12-07T14:03:48;7.40;99.90
18126;DHT22;53956;52.442;13.284;2022-12-07T14:06:19;7.20;99.90
18126;DHT22;53956;52.442;13.284;2022-12-07T14:08:46;7.10;99.90
18126;DHT22;53956;52.442;13.284;2022-12-07T14:11:16;7.20;99.90
18126;DHT22;53956;52.442;13.284;2022-12-07T14:13:59;7.20;99.90
18126;DHT22;53956;52.442;13.284;2022-12-07T14:16:28;7.20;99.90
18126;DHT22;53956;52.442;13.284;2022-12-07T14:18:55;7.00;99.90
18126;DHT22;53956;52.442;13.284;2022-12-07T14:21:25;7.20;99.90
18126;DHT22;53956;52.442;13.284;2022-12-07T14:24:12;7.10;99.90
18126;DHT22;53956;52.442;13.284;2022-12-07T14:26:45;7.10;99.90
18126;DHT22;53956;52.442;13.284;2022-12-07T14:29:32;7.00;99.90
18126;DHT22;53956;52.442;13.284;2022-12-07T14:32:19;7.30;99.90
18126;DHT22;53956;52.442;13.284;2022-12-07T14:34:59;7.10;99.90
18126;DHT22;53956;52.442;13.284;2022-12-07T14:37:27;7.00;99.90
18126;DHT22;53956;52.442;13.284;2022-12-07T14:39:54;7.20;99.90
18126;DHT22;53956;52.442;13.284;2022-12-07T14:42:24;7.30;99.90
18126;DHT22;53956;52.442;13.284;2022-12-07T14:44:52;7.10;99.90
18126;DHT22;53956;52.442;13.284;2022-12-07T14:47:19;7.00;99.90
18126;DHT22;53956;52.442;13.284;2022-12-07T14:49:46;7.00;99.90
18126;DHT22;53956;52.442;13.284;2022-12-07T14:52:15;7.10;99.90
18126;DHT22;53956;52.442;13.284;2022-12-07T14:54:42;6.90;99.90
18126;DHT22;53956;52.442;13.284;2022-12-07T14:57:10;6.80;99.90
18126;DHT22;53956;52.442;13.284;2022-12-07T14:59:37;7.10;99.90
18126;DHT22;53956;52.442;13.284;2022-12-07T15:02:06;6.90;99.90
18126;DHT22;53956;52.442;13.284;2022-12-07T15:04:32;7.20;99.90
18126;DHT22;53956;52.442;13.284;2022-12-07T15:07:01;7.00;99.90
18126;DHT22;53956;52.442;13.284;2022-12-07T15:09:28;6.80;99.90
18126;DHT22;53956;52.442;13.284;2022-12-07T15:11:55;6.90;99.90
18126;DHT22;53956;52.442;13.284;2022-12-07T15:14:22;6.90;99.90
18126;DHT22;53956;52.442;13.284;2022-12-07T15:16:48;6.90;99.90
18126;DHT22;53956;52.442;13.284;2022-12-07T15:19:18;6.90;99.90
18126;DHT22;53956;52.442;13.284;2022-12-07T15:21:45;6.90;99.90
18126;DHT22;53956;52.442;13.284;2022-12-07T15:24:12;7.00;99.90
18126;DHT22;53956;52.442;13.284;2022-12-07T15:26:39;7.00;99.90
18126;DHT22;53956;52.442;13.284;2022-12-07T15:29:07;7.00;99.90
18126;DHT22;53956;52.442;13.284;2022-12-07T15:31:34;6.90;99.90
18126;DHT22;53956;52.442;13.284;2022-12-07T15:34:01;6.90;99.90
18126;DHT22;53956;52.442;13.284;2022-12-07T15:36:31;6.90;99.90
18126;DHT22;53956;52.442;13.284;2022-12-07T15:38:58;6.90;99.90
18126;DHT22;53956;52.442;13.284;2022-12-07T15:41:25;6.90;99.90
18126;DHT22;53956;52.442;13.284;2022-12-07T15:43:53;6.90;99.90
18126;DHT22;53956;52.442;13.284;2022-12-07T15:46:52;7.00;99.90
18126;DHT22;53956;52.442;13.284;2022-12-07T15:49:19;6.80;99.90
18126;DHT22;53956;52.442;13.284;2022-12-07T15:51:47;6.80;99.90
18126;DHT22;53956;52.442;13.284;2022-12-07T15:54:19;6.90;99.90
18126;DHT22;53956;52.442;13.284;2022-12-07T15:56:46;6.80;99.90
18126;DHT22;53956;52.442;13.284;2022-12-07T15:59:13;6.70;99.90
18126;DHT22;53956;52.442;13.284;2022-12-07T16:01:39;6.70;99.90
18126;DHT22;53956;52.442;13.284;2022-12-07T16:04:06;6.80;99.90